Time;durP1;ratioP1;P1;durP2;ratioP2;P2;SDS_P1;SDS_P2;PMS_P1;PMS_P2;Temp;Humidity;BMP_temperature;BMP_pressure;BME280_temperature;BME280_humidity;BME280_pressure;Samples;Min_cycle;Max_cycle;Signal;HPM_P1;HPM_P2
2022/01/14 00:01:50;;;;;;;19.20;7.85;;;7.20;98.50;;;;;;5082475;27;36469;-61
2022/01/14 00:04:18;;;;;;;21.80;8.50;;;7.30;98.50;;;;;;5082147;28;39347;-61
2022/01/14 00:06:45;;;;;;;21.80;8.55;;;7.20;98.50;;;;;;5082204;27;37871;-61
2022/01/14 00:09:15;;;;;;;26.25;8.38;;;7.30;98.40;;;;;;5081436;28;37586;-61
2022/01/14 00:11:48;;;;;;;22.42;8.05;;;7.30;98.30;;;;;;5082130;27;37841;-61
2022/01/14 00:14:25;;;;;;;17.80;7.80;;;7.20;98.40;;;;;;5082178;27;36672;-61
2022/01/14 00:16:53;;;;;;;17.90;7.95;;;7.30;98.40;;;;;;5081630;28;38332;-61
2022/01/14 00:19:20;;;;;;;18.48;8.50;;;7.20;98.40;;;;;;5081000;27;36989;-61
2022/01/14 00:21:47;;;;;;;20.30;8.68;;;7.30;98.30;;;;;;5081447;28;37108;-61
2022/01/14 00:24:28;;;;;;;28.75;9.75;;;7.30;98.30;;;;;;5080896;28;40122;-61
2022/01/14 00:32:33;;;;;;;20.55;9.38;;;7.20;98.30;;;;;;5082074;28;38930;-61
2022/01/14 00:35:01;;;;;;;22.75;10.07;;;7.20;98.30;;;;;;5081754;27;36550;-61
2022/01/14 00:37:28;;;;;;;18.23;8.52;;;7.30;98.30;;;;;;5084684;28;37922;-61
2022/01/14 00:39:57;;;;;;;21.25;10.00;;;7.30;98.30;;;;;;5084489;28;38393;-61
2022/01/14 00:42:24;;;;;;;21.95;10.00;;;7.30;98.30;;;;;;5084433;28;39012;-61
2022/01/14 00:44:52;;;;;;;22.25;8.95;;;7.30;98.20;;;;;;5084682;28;39082;-61
2022/01/14 00:47:19;;;;;;;22.33;8.65;;;7.30;98.20;;;;;;5084681;28;37171;-61
2022/01/14 00:49:47;;;;;;;21.13;9.75;;;7.30;98.10;;;;;;5084209;27;37478;-61
2022/01/14 00:52:14;;;;;;;21.92;9.30;;;7.30;98.20;;;;;;5085617;27;36321;-61
2022/01/14 00:54:41;;;;;;;17.95;9.73;;;7.30;98.10;;;;;;5084508;27;38828;-61
2022/01/14 00:57:28;;;;;;;20.52;9.10;;;7.30;98.10;;;;;;5083817;28;39033;-61
2022/01/14 00:59:54;;;;;;;24.25;9.20;;;7.30;98.10;;;;;;5083476;27;37374;-61
2022/01/14 01:02:22;;;;;;;19.13;8.88;;;7.20;98.00;;;;;;5083664;28;37674;-61
2022/01/14 01:04:50;;;;;;;16.70;9.60;;;7.20;98.00;;;;;;5084541;27;38435;-61
2022/01/14 01:07:18;;;;;;;24.17;9.35;;;7.20;97.90;;;;;;5084345;27;37942;-61
2022/01/14 01:09:49;;;;;;;21.38;9.63;;;7.10;97.90;;;;;;5084228;27;35461;-61
2022/01/14 01:12:31;;;;;;;19.77;8.90;;;7.10;98.00;;;;;;5083527;27;37324;-61
2022/01/14 01:15:05;;;;;;;24.20;9.82;;;7.10;98.10;;;;;;5084271;28;38330;-61
2022/01/14 01:17:34;;;;;;;18.48;8.57;;;7.10;98.10;;;;;;5083406;28;38388;-61
2022/01/14 01:20:01;;;;;;;21.60;9.82;;;7.10;98.10;;;;;;5084006;27;35364;-61
2022/01/14 01:22:28;;;;;;;16.08;8.38;;;7.00;98.00;;;;;;5083188;27;40163;-61
2022/01/14 01:24:56;;;;;;;19.77;9.48;;;7.10;98.00;;;;;;5083137;27;37974;-61
2022/01/14 01:27:25;;;;;;;20.48;9.32;;;7.10;98.10;;;;;;5084170;27;36193;-61
2022/01/14 01:29:59;;;;;;;18.10;9.40;;;7.10;98.00;;;;;;5084015;28;36439;-61
2022/01/14 01:32:27;;;;;;;22.77;11.18;;;7.10;98.00;;;;;;5083656;28;37614;-61
2022/01/14 01:34:54;;;;;;;17.85;9.70;;;7.10;98.00;;;;;;5084337;27;38440;-61
2022/01/14 01:37:21;;;;;;;25.38;10.27;;;7.10;98.00;;;;;;5084249;27;38422;-61
2022/01/14 01:39:49;;;;;;;22.73;10.15;;;7.10;98.10;;;;;;5084975;27;35406;-61
2022/01/14 01:42:23;;;;;;;19.13;9.88;;;7.10;98.10;;;;;;5083702;28;39529;-61
2022/01/14 01:44:52;;;;;;;22.48;10.13;;;7.20;98.10;;;;;;5083385;28;37724;-61
2022/01/14 01:47:21;;;;;;;26.55;9.52;;;7.20;98.10;;;;;;5081723;28;37367;-61
2022/01/14 01:49:48;;;;;;;20.20;9.18;;;7.20;98.30;;;;;;5082142;28;35675;-61
2022/01/14 01:52:15;;;;;;;20.63;10.05;;;7.20;98.10;;;;;;5083197;27;37210;-61
2022/01/14 01:54:43;;;;;;;26.90;10.10;;;7.20;98.10;;;;;;5082813;27;36607;-61
2022/01/14 01:57:10;;;;;;;19.73;9.60;;;7.20;98.10;;;;;;5082876;28;37136;-61
2022/01/14 01:59:38;;;;;;;22.00;9.65;;;7.20;98.10;;;;;;5083555;27;36610;-61
2022/01/14 02:02:06;;;;;;;24.33;9.90;;;7.30;98.20;;;;;;5083275;27;37580;-61
2022/01/14 02:04:34;;;;;;;24.40;10.32;;;7.30;98.10;;;;;;5083537;27;36777;-61
2022/01/14 02:07:01;;;;;;;27.00;10.50;;;7.30;98.10;;;;;;5083510;27;39731;-61
2022/01/14 02:09:28;;;;;;;26.38;10.68;;;7.30;98.10;;;;;;5083712;28;37173;-61
2022/01/14 02:11:56;;;;;;;20.88;9.68;;;7.30;98.10;;;;;;5083974;27;39238;-61
2022/01/14 02:14:40;;;;;;;24.92;10.20;;;7.30;98.10;;;;;;5084205;27;37771;-61
2022/01/14 02:17:29;;;;;;;31.27;10.77;;;7.30;98.10;;;;;;5083771;28;36492;-61
2022/01/14 02:22:49;;;;;;;20.52;10.95;;;7.30;98.00;;;;;;5083350;28;38237;-61
2022/01/14 02:25:23;;;;;;;24.40;11.18;;;7.30;98.00;;;;;;5082214;27;37699;-61
2022/01/14 02:27:50;;;;;;;;;;;7.40;98.00;;;;;;5082054;27;37423;-61
2022/01/14 02:30:18;;;;;;;20.20;10.57;;;7.40;97.80;;;;;;5084142;27;38063;-61
2022/01/14 02:32:45;;;;;;;22.95;10.15;;;7.30;97.90;;;;;;5082218;28;38851;-61
2022/01/14 02:35:14;;;;;;;20.58;10.23;;;7.40;97.90;;;;;;5082718;27;36520;-61
2022/01/14 02:37:41;;;;;;;24.13;11.25;;;7.30;97.90;;;;;;5083529;27;36248;-61
2022/01/14 02:40:10;;;;;;;24.45;10.43;;;7.40;97.90;;;;;;5083156;28;36900;-61
2022/01/14 02:42:37;;;;;;;26.52;11.75;;;7.40;97.90;;;;;;5082741;27;38381;-60
2022/01/14 02:45:10;;;;;;;21.67;9.93;;;7.30;97.90;;;;;;5083442;28;37899;-61
2022/01/14 02:47:37;;;;;;;22.83;11.23;;;7.40;98.00;;;;;;5082466;27;37843;-60
2022/01/14 02:50:07;;;;;;;23.65;12.07;;;7.40;97.90;;;;;;5082060;28;36703;-61
2022/01/14 02:52:54;;;;;;;27.15;11.15;;;7.40;97.90;;;;;;5082486;27;38056;-61
2022/01/14 02:55:27;;;;;;;22.63;10.68;;;7.40;98.00;;;;;;5081152;28;39090;-61
2022/01/14 02:57:56;;;;;;;22.60;11.07;;;7.50;97.90;;;;;;5081136;27;38900;-61
2022/01/14 03:00:26;;;;;;;24.40;11.70;;;7.40;97.90;;;;;;5082828;28;36851;-61
2022/01/14 03:02:53;;;;;;;27.25;12.27;;;7.50;97.90;;;;;;5082594;27;36322;-61
2022/01/14 03:05:22;;;;;;;19.63;11.93;;;7.50;97.90;;;;;;5082997;28;37508;-61
2022/01/14 03:07:51;;;;;;;26.40;10.98;;;7.50;97.90;;;;;;5081454;27;37832;-61
2022/01/14 03:10:19;;;;;;;27.23;10.77;;;7.50;97.90;;;;;;5082405;28;37096;-61
2022/01/14 03:12:48;;;;;;;25.13;11.85;;;7.50;97.90;;;;;;5082548;28;38906;-61
2022/01/14 03:15:16;;;;;;;20.88;11.65;;;7.50;97.90;;;;;;5082848;28;37509;-61
2022/01/14 03:17:44;;;;;;;26.55;11.75;;;7.50;97.90;;;;;;5079874;28;37809;-61
2022/01/14 03:20:37;;;;;;;22.50;12.00;;;7.60;97.90;;;;;;5081007;28;36793;-61
2022/01/14 03:23:06;;;;;;;32.20;13.10;;;7.50;97.90;;;;;;5082049;28;38212;-61
2022/01/14 03:25:47;;;;;;;23.33;11.77;;;7.50;97.90;;;;;;5082698;28;37677;-61
2022/01/14 03:28:16;;;;;;;23.88;11.27;;;7.50;98.00;;;;;;5080375;28;36214;-60
2022/01/14 03:30:43;;;;;;;18.67;10.77;;;7.50;97.90;;;;;;5082284;27;35552;-61
2022/01/14 03:33:11;;;;;;;22.42;11.82;;;7.50;97.90;;;;;;5080663;27;37724;-61
2022/01/14 03:35:38;;;;;;;24.05;12.15;;;7.50;97.80;;;;;;5082136;28;38028;-61
2022/01/14 03:38:07;;;;;;;25.80;12.57;;;7.60;97.90;;;;;;5081515;27;36156;-60
2022/01/14 03:40:34;;;;;;;26.40;12.00;;;7.50;97.80;;;;;;5082699;27;38150;-61
2022/01/14 03:43:02;;;;;;;23.75;11.55;;;7.60;97.90;;;;;;5082007;28;37686;-61
2022/01/14 03:45:29;;;;;;;20.90;11.10;;;7.50;97.90;;;;;;5082262;27;37948;-61
2022/01/14 03:47:57;;;;;;;23.30;11.98;;;7.50;98.10;;;;;;5081476;27;36311;-61
2022/01/14 03:50:25;;;;;;;23.90;11.55;;;7.50;97.90;;;;;;5081221;27;37746;-61
2022/01/14 03:52:52;;;;;;;21.80;11.27;;;7.50;97.80;;;;;;5081145;28;37333;-60
2022/01/14 03:55:21;;;;;;;26.25;11.90;;;7.60;97.90;;;;;;5081850;27;36506;-61
2022/01/14 03:57:49;;;;;;;26.60;12.35;;;7.60;97.90;;;;;;5081533;28;37363;-61
2022/01/14 04:00:18;;;;;;;22.38;12.38;;;7.60;97.90;;;;;;5082321;27;36653;-61
2022/01/14 04:02:46;;;;;;;25.00;11.45;;;7.60;98.00;;;;;;5081663;28;38316;-61
2022/01/14 04:05:14;;;;;;;22.33;11.75;;;7.60;98.00;;;;;;5080547;28;37856;-61
2022/01/14 04:07:42;;;;;;;23.13;10.98;;;7.50;98.00;;;;;;5080792;28;36426;-61
2022/01/14 04:10:12;;;;;;;23.40;11.30;;;7.50;98.00;;;;;;5082554;27;38240;-60
2022/01/14 04:12:49;;;;;;;22.10;12.23;;;7.50;98.00;;;;;;5084954;27;37657;-61
2022/01/14 04:18:13;;;;;;;21.50;10.90;;;7.50;98.10;;;;;;5068188;27;38460;-61
2022/01/14 04:20:41;;;;;;;24.20;11.77;;;7.40;98.10;;;;;;5084365;27;35693;-61
2022/01/14 04:23:11;;;;;;;23.90;11.90;;;7.40;98.20;;;;;;5084766;28;38912;-61
2022/01/14 04:25:39;;;;;;;23.55;11.13;;;7.50;98.30;;;;;;5084500;27;37712;-61
2022/01/14 04:28:09;;;;;;;26.60;12.00;;;7.50;98.30;;;;;;5084548;27;37314;-61
2022/01/14 04:30:36;;;;;;;26.60;12.18;;;7.40;98.20;;;;;;5085143;27;36975;-61
2022/01/14 04:33:05;;;;;;;20.50;11.38;;;7.40;98.20;;;;;;5084585;27;37672;-61
2022/01/14 04:35:33;;;;;;;28.20;11.35;;;7.30;98.10;;;;;;5084524;27;37958;-61
2022/01/14 04:38:01;;;;;;;21.52;11.25;;;7.40;98.20;;;;;;5082515;28;37350;-61
2022/01/14 04:40:28;;;;;;;23.50;11.65;;;7.30;98.10;;;;;;5083198;27;36552;-61
2022/01/14 04:42:58;;;;;;;23.73;11.73;;;7.30;98.20;;;;;;5083764;28;38656;-61
2022/01/14 04:45:40;;;;;;;23.50;11.23;;;7.30;98.10;;;;;;5084818;27;38118;-61
2022/01/14 04:48:09;;;;;;;23.23;11.65;;;7.30;98.00;;;;;;5083760;28;37342;-61
2022/01/14 04:50:37;;;;;;;34.65;12.27;;;7.30;98.00;;;;;;5084152;27;37423;-61
2022/01/14 04:53:05;;;;;;;22.90;10.85;;;7.30;97.90;;;;;;5084242;27;37409;-61
2022/01/14 04:55:32;;;;;;;23.10;11.10;;;7.30;97.90;;;;;;5085048;28;37872;-60
2022/01/14 04:57:59;;;;;;;25.30;10.35;;;7.30;97.90;;;;;;5084743;27;36125;-60
2022/01/14 05:00:29;;;;;;;21.00;11.00;;;7.30;97.90;;;;;;5083036;27;36794;-61
2022/01/14 05:02:56;;;;;;;25.27;11.75;;;7.30;97.90;;;;;;5084779;28;37694;-61
2022/01/14 05:05:27;;;;;;;29.75;12.55;;;7.30;97.90;;;;;;5083962;27;38479;-61
2022/01/14 05:07:55;;;;;;;24.08;11.95;;;7.30;97.90;;;;;;5083792;27;37684;-60
2022/01/14 05:10:34;;;;;;;20.85;11.55;;;7.30;97.90;;;;;;5084472;28;35529;-61
2022/01/14 05:13:03;;;;;;;26.60;11.88;;;7.30;97.90;;;;;;5082950;28;37637;-61
2022/01/14 05:15:32;;;;;;;21.15;11.48;;;7.30;97.90;;;;;;5083237;28;39503;-60
2022/01/14 05:17:59;;;;;;;24.42;12.50;;;7.20;97.90;;;;;;5083133;28;37215;-61
2022/01/14 05:20:26;;;;;;;27.55;12.45;;;7.20;97.90;;;;;;5083608;27;38524;-61
2022/01/14 05:22:54;;;;;;;26.45;11.02;;;7.20;97.90;;;;;;5083481;27;38222;-61
2022/01/14 05:25:21;;;;;;;26.20;13.30;;;7.20;97.90;;;;;;5084153;27;37931;-61
2022/01/14 05:27:48;;;;;;;18.40;11.80;;;7.20;97.90;;;;;;5082603;28;37940;-61
2022/01/14 05:30:16;;;;;;;24.45;12.27;;;7.30;97.90;;;;;;5084124;27;35545;-61
2022/01/14 05:32:47;;;;;;;30.23;11.75;;;7.20;97.90;;;;;;5082581;27;37918;-61
2022/01/14 05:35:16;;;;;;;26.17;11.80;;;7.30;98.00;;;;;;5082649;27;37395;-61
2022/01/14 05:37:43;;;;;;;28.25;11.60;;;7.30;97.90;;;;;;5082491;27;37342;-61
2022/01/14 05:40:30;;;;;;;27.17;11.50;;;7.30;97.90;;;;;;5084046;28;36702;-61
2022/01/14 05:42:59;;;;;;;29.65;13.18;;;7.30;97.90;;;;;;5082508;27;37315;-61
2022/01/14 05:45:26;;;;;;;25.65;12.15;;;7.30;97.90;;;;;;5082717;27;39198;-61
2022/01/14 05:48:14;;;;;;;20.90;11.25;;;7.30;97.80;;;;;;5081884;27;35999;-60
2022/01/14 05:50:42;;;;;;;23.33;11.52;;;7.30;97.80;;;;;;5082265;27;36886;-61
2022/01/14 05:53:10;;;;;;;23.23;10.82;;;7.30;97.80;;;;;;5082716;28;36322;-61
2022/01/14 05:55:37;;;;;;;19.23;11.52;;;7.30;97.80;;;;;;5082893;28;37504;-61
2022/01/14 05:58:04;;;;;;;27.50;12.43;;;7.40;97.80;;;;;;5082984;27;37493;-61
2022/01/14 06:00:32;;;;;;;20.17;11.65;;;7.30;97.80;;;;;;5082212;27;37945;-61
2022/01/14 06:03:00;;;;;;;27.05;12.07;;;7.30;97.80;;;;;;5082602;28;39160;-61
2022/01/14 06:05:28;;;;;;;26.15;11.18;;;7.40;97.80;;;;;;5081996;27;36718;-61
2022/01/14 06:07:55;;;;;;;22.45;11.30;;;7.40;97.70;;;;;;5082682;27;37165;-61
2022/01/14 06:10:22;;;;;;;29.73;11.38;;;7.40;97.70;;;;;;5082310;28;37744;-61
2022/01/14 06:12:50;;;;;;;28.40;11.68;;;7.40;97.70;;;;;;5082877;27;37573;-60
2022/01/14 06:15:18;;;;;;;22.85;11.45;;;7.40;97.80;;;;;;5081703;28;38907;-61
2022/01/14 06:17:45;;;;;;;27.63;11.65;;;7.40;97.60;;;;;;5081773;28;38241;-61
2022/01/14 06:20:14;;;;;;;23.23;11.77;;;7.40;97.50;;;;;;5082020;28;36481;-61
2022/01/14 06:22:42;;;;;;;18.63;11.07;;;7.40;97.50;;;;;;5081397;27;36489;-61
2022/01/14 06:25:10;;;;;;;29.27;12.35;;;7.40;97.50;;;;;;5081820;28;37712;-60
2022/01/14 06:27:38;;;;;;;21.65;12.80;;;7.40;97.50;;;;;;5079914;27;39015;-61
2022/01/14 06:30:07;;;;;;;23.58;11.55;;;7.40;97.60;;;;;;5080606;27;38346;-61
2022/01/14 06:32:35;;;;;;;23.50;11.63;;;7.40;97.60;;;;;;5081063;27;39315;-61
2022/01/14 06:35:03;;;;;;;23.60;11.20;;;7.40;97.60;;;;;;5082362;28;37637;-61
2022/01/14 06:37:31;;;;;;;19.30;11.50;;;7.40;97.60;;;;;;5080747;28;38916;-60
2022/01/14 06:39:59;;;;;;;21.17;11.20;;;7.40;97.50;;;;;;5082270;27;37034;-61
2022/01/14 06:42:26;;;;;;;21.65;11.23;;;7.40;97.50;;;;;;5081577;27;36324;-61
2022/01/14 06:44:53;;;;;;;25.08;12.00;;;7.40;97.50;;;;;;5082429;27;37533;-61
2022/01/14 06:47:22;;;;;;;23.42;10.93;;;7.40;97.50;;;;;;5082517;28;37373;-61
2022/01/14 06:49:50;;;;;;;28.30;10.45;;;7.50;97.50;;;;;;5082189;28;35563;-61
2022/01/14 06:52:17;;;;;;;22.70;10.02;;;7.50;97.60;;;;;;5081774;28;37537;-61
2022/01/14 06:54:46;;;;;;;22.85;10.40;;;7.50;97.50;;;;;;5082787;28;38422;-61
2022/01/14 06:57:13;;;;;;;17.65;9.15;;;7.50;97.50;;;;;;5081495;28;37655;-61
2022/01/14 06:59:40;;;;;;;25.60;10.38;;;7.50;97.50;;;;;;5081024;28;36620;-61
2022/01/14 07:02:08;;;;;;;24.85;8.77;;;7.50;97.50;;;;;;5080838;28;35983;-61
2022/01/14 07:04:35;;;;;;;22.70;9.27;;;7.50;97.50;;;;;;5080071;27;38528;-61
2022/01/14 07:07:03;;;;;;;23.83;8.93;;;7.50;97.40;;;;;;5078586;28;37417;-61
2022/01/14 07:09:31;;;;;;;17.58;8.77;;;7.50;97.40;;;;;;5079767;27;35004;-61
2022/01/14 07:12:01;;;;;;;20.98;8.55;;;7.50;97.40;;;;;;5080347;28;38535;-61
2022/01/14 07:14:29;;;;;;;28.20;9.52;;;7.50;97.40;;;;;;5080486;28;38957;-61
2022/01/14 07:16:57;;;;;;;28.67;8.73;;;7.50;97.40;;;;;;5081705;28;36321;-61
2022/01/14 07:19:26;;;;;;;19.45;8.25;;;7.50;97.40;;;;;;5080594;28;36358;-61
2022/01/14 07:21:53;;;;;;;24.10;8.85;;;7.50;97.40;;;;;;5081492;27;38559;-61
2022/01/14 07:24:20;;;;;;;18.25;7.93;;;7.50;97.50;;;;;;5080902;27;38155;-61
2022/01/14 07:26:50;;;;;;;21.27;9.38;;;7.50;97.50;;;;;;5079094;27;38703;-61
2022/01/14 07:29:19;;;;;;;22.83;9.20;;;7.50;97.50;;;;;;5079304;27;36522;-61
2022/01/14 07:31:46;;;;;;;21.55;10.00;;;7.50;97.50;;;;;;5080799;28;37779;-61
2022/01/14 07:34:13;;;;;;;23.67;9.93;;;7.50;97.50;;;;;;5081933;28;38137;-61
2022/01/14 07:36:41;;;;;;;22.45;10.20;;;7.50;97.50;;;;;;5081416;28;37051;-61
2022/01/14 07:39:08;;;;;;;20.75;9.60;;;7.50;97.50;;;;;;5080631;28;36411;-61
2022/01/14 07:41:35;;;;;;;22.90;8.07;;;7.50;97.50;;;;;;5081927;28;37288;-61
2022/01/14 07:44:04;;;;;;;22.45;7.85;;;7.60;97.50;;;;;;5082131;28;37661;-61
2022/01/14 07:46:32;;;;;;;16.63;8.90;;;7.60;97.50;;;;;;5085149;28;38593;-61
2022/01/14 07:49:00;;;;;;;26.45;8.40;;;7.60;97.50;;;;;;5084378;27;36956;-61
2022/01/14 07:51:27;;;;;;;19.10;7.90;;;7.60;97.50;;;;;;5085022;27;37550;-61
2022/01/14 07:53:56;;;;;;;22.23;8.05;;;7.50;97.50;;;;;;5085133;27;38561;-61
2022/01/14 07:56:24;;;;;;;20.92;7.50;;;7.50;97.50;;;;;;5085792;28;37354;-61
2022/01/14 07:58:51;;;;;;;18.10;6.93;;;7.60;97.50;;;;;;5084532;27;36519;-61
2022/01/14 08:01:18;;;;;;;17.92;6.75;;;7.60;97.60;;;;;;5086058;27;37289;-61
2022/01/14 08:03:47;;;;;;;19.85;6.65;;;7.70;97.50;;;;;;5077172;27;36474;-61
2022/01/14 08:06:14;;;;;;;14.02;5.53;;;7.60;97.50;;;;;;5075153;27;39208;-61
2022/01/14 08:08:42;;;;;;;16.58;5.75;;;7.60;97.50;;;;;;5077152;28;37191;-61
2022/01/14 08:11:09;;;;;;;14.23;5.93;;;7.60;97.40;;;;;;5077355;27;38421;-61
2022/01/14 08:13:36;;;;;;;21.27;6.53;;;7.60;97.40;;;;;;5078475;27;36462;-61
2022/01/14 08:16:04;;;;;;;22.15;6.07;;;7.60;97.50;;;;;;5077624;28;38341;-61
2022/01/14 08:18:32;;;;;;;16.05;5.70;;;7.60;97.50;;;;;;5076851;27;38694;-61
2022/01/14 08:21:00;;;;;;;20.48;5.75;;;7.60;97.60;;;;;;5077095;28;37440;-61
2022/01/14 08:23:28;;;;;;;17.48;5.47;;;7.60;97.60;;;;;;5076051;28;37828;-61
2022/01/14 08:25:57;;;;;;;19.67;6.05;;;7.60;97.60;;;;;;5073380;28;40375;-61
2022/01/14 08:28:25;;;;;;;23.15;5.55;;;7.70;97.60;;;;;;5077369;28;37478;-61
2022/01/14 08:30:53;;;;;;;16.63;5.22;;;7.70;97.60;;;;;;5077682;27;38273;-61
2022/01/14 08:33:20;;;;;;;16.40;5.07;;;7.70;97.60;;;;;;5077125;28;38631;-61
2022/01/14 08:35:48;;;;;;;15.32;5.40;;;7.70;97.60;;;;;;5078031;28;37793;-61
2022/01/14 08:38:17;;;;;;;11.93;5.13;;;7.70;97.60;;;;;;5076981;27;35252;-60
2022/01/14 08:40:44;;;;;;;13.52;4.40;;;7.70;97.60;;;;;;5077681;28;37575;-61
2022/01/14 08:43:12;;;;;;;15.68;4.60;;;7.80;97.60;;;;;;5076989;28;36569;-61
2022/01/14 08:45:39;;;;;;;21.67;4.80;;;7.80;97.60;;;;;;5076741;27;37428;-61
2022/01/14 08:48:07;;;;;;;17.50;4.35;;;7.80;97.60;;;;;;5076878;28;37316;-61
2022/01/14 08:50:36;;;;;;;17.65;5.40;;;7.80;97.60;;;;;;5076143;27;39251;-60
2022/01/14 08:53:05;;;;;;;12.43;4.53;;;7.90;97.50;;;;;;5075092;28;38227;-60
2022/01/14 08:55:35;;;;;;;14.52;4.38;;;7.90;97.60;;;;;;5074235;27;37502;-60
2022/01/14 08:58:03;;;;;;;13.60;4.20;;;7.90;97.60;;;;;;5076577;27;36121;-60
2022/01/14 09:00:31;;;;;;;15.50;4.65;;;8.00;97.60;;;;;;5075118;28;38945;-60
2022/01/14 09:02:59;;;;;;;15.38;4.00;;;8.00;97.50;;;;;;5077312;27;37665;-60
2022/01/14 09:05:26;;;;;;;17.48;5.20;;;8.00;97.50;;;;;;5077690;28;37457;-60
2022/01/14 09:07:53;;;;;;;17.38;4.63;;;8.00;97.50;;;;;;5077699;28;37824;-60
2022/01/14 09:10:21;;;;;;;10.27;3.50;;;8.00;97.50;;;;;;5076836;27;37403;-61
2022/01/14 09:12:50;;;;;;;13.93;4.60;;;8.10;97.50;;;;;;5076311;28;38395;-60
2022/01/14 09:15:18;;;;;;;12.23;3.55;;;8.10;97.50;;;;;;5076518;28;37490;-60
2022/01/14 09:17:45;;;;;;;12.00;3.55;;;8.10;97.40;;;;;;5077827;28;37122;-60
2022/01/14 09:20:13;;;;;;;12.02;2.95;;;8.10;97.40;;;;;;5075375;28;38464;-60
2022/01/14 09:22:47;;;;;;;15.75;3.60;;;8.20;97.40;;;;;;5076062;28;38886;-60
2022/01/14 09:25:15;;;;;;;;;;;8.20;97.40;;;;;;5078015;28;37395;-60
2022/01/14 09:27:42;;;;;;;16.05;4.43;;;8.20;97.30;;;;;;5076983;28;37742;-60
2022/01/14 09:30:13;;;;;;;15.50;3.78;;;8.20;97.30;;;;;;5077012;27;36937;-60
2022/01/14 09:32:40;;;;;;;16.52;3.88;;;8.30;97.40;;;;;;5077696;28;38150;-60
2022/01/14 09:35:11;;;;;;;9.68;2.97;;;8.30;97.40;;;;;;5077462;27;36319;-60
2022/01/14 09:37:39;;;;;;;18.40;4.32;;;8.30;97.40;;;;;;5077285;27;36478;-60
2022/01/14 09:40:08;;;;;;;13.30;3.70;;;8.30;97.30;;;;;;5076966;27;39131;-61
2022/01/14 09:42:35;;;;;;;15.13;3.15;;;8.30;97.30;;;;;;5076037;27;38146;-60
2022/01/14 09:45:04;;;;;;;19.52;4.32;;;8.40;97.20;;;;;;5076048;27;38943;-60
2022/01/14 09:47:33;;;;;;;16.65;3.05;;;8.40;97.20;;;;;;5072079;28;36923;-60
2022/01/14 09:50:00;;;;;;;14.82;3.22;;;8.40;97.30;;;;;;5076399;27;40009;-61
2022/01/14 09:52:27;;;;;;;9.82;3.15;;;8.70;97.30;;;;;;5077122;28;36513;-60
2022/01/14 09:54:55;;;;;;;14.70;3.13;;;8.50;97.20;;;;;;5074072;28;37512;-60
2022/01/14 09:57:22;;;;;;;9.65;2.90;;;8.50;97.10;;;;;;5074053;27;37739;-60
2022/01/14 09:59:49;;;;;;;13.55;3.03;;;8.50;97.10;;;;;;5075528;28;36236;-61
2022/01/14 10:02:31;;;;;;;13.32;2.80;;;8.50;97.00;;;;;;5075729;27;37753;-61
2022/01/14 10:05:00;;;;;;;17.05;3.72;;;8.60;96.90;;;;;;5074784;28;40066;-60
2022/01/14 10:07:29;;;;;;;14.65;3.03;;;8.50;96.80;;;;;;5075262;27;37203;-60
2022/01/14 10:09:58;;;;;;;13.48;3.05;;;8.60;96.90;;;;;;5075980;28;38339;-60
2022/01/14 10:12:27;;;;;;;26.48;3.17;;;8.50;96.90;;;;;;5076727;27;38470;-60
2022/01/14 10:14:56;;;;;;;11.15;2.38;;;8.50;96.90;;;;;;5076261;27;37561;-60
2022/01/14 10:17:25;;;;;;;12.32;2.90;;;8.60;96.80;;;;;;5077423;27;36594;-60
2022/01/14 10:19:52;;;;;;;16.65;3.00;;;8.50;96.80;;;;;;5074839;27;37462;-60
2022/01/14 10:22:24;;;;;;;16.35;3.00;;;8.50;96.80;;;;;;5076948;27;37680;-60
2022/01/14 10:24:59;;;;;;;17.77;2.90;;;8.50;96.90;;;;;;5076199;27;38579;-61
2022/01/14 10:27:40;;;;;;;13.63;3.00;;;8.50;96.90;;;;;;5076305;27;36499;-60
2022/01/14 10:30:14;;;;;;;14.07;3.42;;;8.50;96.90;;;;;;5075363;27;39868;-60
2022/01/14 10:32:43;;;;;;;14.02;2.70;;;8.50;96.90;;;;;;5075190;27;38696;-61
2022/01/14 10:35:12;;;;;;;13.00;3.25;;;8.50;96.80;;;;;;5075415;27;38524;-60
2022/01/14 10:37:41;;;;;;;11.35;2.92;;;8.50;96.90;;;;;;5075841;28;35842;-61
2022/01/14 10:40:15;;;;;;;11.48;2.97;;;8.50;96.90;;;;;;5075188;28;36214;-60
2022/01/14 10:42:45;;;;;;;14.18;3.03;;;8.50;96.90;;;;;;5075844;27;37737;-61
2022/01/14 10:45:21;;;;;;;14.40;3.05;;;8.50;96.90;;;;;;5075642;27;36386;-60
2022/01/14 10:47:55;;;;;;;15.65;2.90;;;8.50;97.00;;;;;;5076159;28;37472;-60
2022/01/14 10:50:32;;;;;;;10.18;2.45;;;8.50;97.10;;;;;;5075970;28;37904;-60
2022/01/14 10:53:02;;;;;;;14.63;3.15;;;8.50;97.10;;;;;;5076036;28;38181;-61
2022/01/14 10:55:35;;;;;;;15.52;3.17;;;8.50;97.10;;;;;;5074016;28;36907;-61
2022/01/14 10:58:04;;;;;;;15.82;2.85;;;8.50;97.10;;;;;;5074426;28;36768;-60
2022/01/14 11:00:39;;;;;;;15.48;2.80;;;8.50;97.10;;;;;;5073023;28;37779;-60
2022/01/14 11:03:07;;;;;;;20.75;3.60;;;8.50;97.10;;;;;;5075982;27;37840;-60
2022/01/14 11:05:35;;;;;;;12.15;4.03;;;8.50;97.20;;;;;;5076436;28;37385;-60
2022/01/14 11:08:05;;;;;;;20.25;3.80;;;8.60;97.40;;;;;;5075788;27;36378;-60
2022/01/14 11:10:34;;;;;;;17.73;3.60;;;8.50;97.10;;;;;;5076140;27;37357;-60
2022/01/14 11:13:03;;;;;;;16.02;3.17;;;8.60;97.20;;;;;;5074293;27;39683;-61
2022/01/14 11:15:32;;;;;;;20.63;4.60;;;8.60;97.20;;;;;;5076548;27;37216;-60
2022/01/14 11:18:02;;;;;;;12.88;3.30;;;8.60;97.30;;;;;;5075808;28;37157;-60
2022/01/14 11:20:33;;;;;;;18.45;3.22;;;8.60;97.20;;;;;;5075991;27;37610;-60
2022/01/14 11:23:14;;;;;;;18.42;3.22;;;8.70;97.20;;;;;;5074485;27;40747;-60
2022/01/14 11:25:45;;;;;;;15.40;3.25;;;8.70;97.20;;;;;;5076829;27;36974;-61
2022/01/14 11:28:17;;;;;;;10.35;3.00;;;8.70;97.20;;;;;;5073430;27;36486;-61
2022/01/14 11:30:44;;;;;;;14.25;3.33;;;8.70;97.20;;;;;;5075465;27;38631;-61
2022/01/14 11:33:15;;;;;;;16.08;3.33;;;8.70;97.20;;;;;;5075412;28;39020;-61
2022/01/14 11:35:54;;;;;;;11.65;3.00;;;8.80;97.20;;;;;;5074782;28;36088;-61
2022/01/14 11:38:38;;;;;;;18.50;3.22;;;8.80;97.20;;;;;;5074110;27;36521;-61
2022/01/14 11:41:07;;;;;;;14.65;3.20;;;8.80;97.20;;;;;;5073713;28;37255;-61
2022/01/14 11:43:42;;;;;;;21.70;3.17;;;8.80;97.10;;;;;;5074556;28;39209;-61
2022/01/14 11:46:13;;;;;;;12.95;3.75;;;8.80;97.10;;;;;;5073559;28;36219;-61
2022/01/14 11:48:46;;;;;;;10.18;2.83;;;8.80;97.20;;;;;;5073921;28;36772;-61
2022/01/14 11:51:16;;;;;;;13.35;3.45;;;8.80;97.20;;;;;;5073814;27;37578;-61
2022/01/14 11:53:52;;;;;;;18.23;3.70;;;8.80;97.20;;;;;;5073685;27;39424;-61
2022/01/14 11:56:48;;;;;;;15.13;3.90;;;8.80;97.10;;;;;;5070470;28;37371;-61
2022/01/14 11:59:52;;;;;;;22.63;4.07;;;8.80;97.00;;;;;;5071592;27;36966;-61
2022/01/14 12:02:31;;;;;;;16.08;4.00;;;8.80;97.10;;;;;;5068769;27;36241;-61
2022/01/14 12:05:17;;;;;;;13.02;3.58;;;8.80;97.10;;;;;;4949153;27;37977;-61
2022/01/14 12:08:11;;;;;;;17.10;5.10;;;8.80;97.20;;;;;;5027699;28;20136;-61
2022/01/14 12:10:41;;;;;;;18.13;3.47;;;8.90;97.20;;;;;;5060109;28;20076;-61
2022/01/14 12:13:40;;;;;;;21.50;3.45;;;8.90;97.20;;;;;;5060852;28;20060;-61
2022/01/14 12:16:11;;;;;;;12.88;3.97;;;8.90;97.20;;;;;;5060106;28;20952;-60
2022/01/14 12:19:09;;;;;;;12.30;3.20;;;8.90;97.20;;;;;;5059140;28;20060;-61
2022/01/14 12:21:54;;;;;;;14.55;3.58;;;8.90;97.20;;;;;;5058151;28;20059;-61
2022/01/14 12:24:52;;;;;;;11.55;3.20;;;8.90;97.20;;;;;;5059297;27;20051;-61
2022/01/14 12:27:46;;;;;;;16.88;3.63;;;9.00;97.30;;;;;;5048740;27;20056;-61
2022/01/14 12:30:28;;;;;;;13.20;4.47;;;9.00;97.30;;;;;;5060389;28;20146;-61
2022/01/14 12:32:56;;;;;;;19.85;4.15;;;9.00;97.30;;;;;;5062893;28;20059;-61
2022/01/14 12:35:29;;;;;;;16.77;4.03;;;9.00;97.30;;;;;;5064713;28;20055;-61
2022/01/14 12:37:57;;;;;;;19.38;3.72;;;9.00;97.30;;;;;;5064076;28;20063;-61
2022/01/14 12:40:27;;;;;;;21.27;4.70;;;9.00;97.40;;;;;;5064387;28;20059;-61
2022/01/14 12:42:58;;;;;;;14.52;3.70;;;9.00;97.40;;;;;;5063193;28;20059;-60
2022/01/14 12:45:35;;;;;;;19.65;4.38;;;9.00;97.40;;;;;;5062435;28;20052;-60
2022/01/14 12:48:31;;;;;;;17.48;3.53;;;9.00;97.50;;;;;;5061682;27;20060;-61
2022/01/14 12:51:10;;;;;;;18.90;3.65;;;9.00;97.50;;;;;;5062502;28;20049;-60
2022/01/14 12:53:46;;;;;;;20.27;3.92;;;8.90;97.50;;;;;;5063237;28;22185;-60
2022/01/14 12:56:18;;;;;;;20.25;4.57;;;9.00;97.60;;;;;;5062013;27;20049;-61
2022/01/14 12:58:57;;;;;;;16.15;3.00;;;8.90;97.60;;;;;;5064783;28;20102;-61
2022/01/14 13:01:36;;;;;;;19.27;3.95;;;8.90;97.60;;;;;;5064203;28;20057;-61
2022/01/14 13:04:08;;;;;;;17.77;3.92;;;9.00;97.70;;;;;;5062809;28;20055;-61
2022/01/14 13:06:46;;;;;;;17.55;3.88;;;8.90;97.70;;;;;;5064900;28;20045;-61
2022/01/14 13:09:17;;;;;;;17.63;3.97;;;8.90;97.70;;;;;;5064062;28;20056;-61
2022/01/14 13:11:50;;;;;;;21.83;4.60;;;8.90;97.80;;;;;;5063272;28;20631;-61